sensor_id;sensor_type;location;lat;lon;timestamp;pressure;altitude;pressure_sealevel;temperature
76898;BMP180;65856;52.178;21.176;2023-02-15T00:01:16;102207.80;;;4.28
76898;BMP180;65856;52.178;21.176;2023-02-15T00:03:48;102205.80;;;4.30
76898;BMP180;65856;52.178;21.176;2023-02-15T00:06:19;102204.00;;;4.40
76898;BMP180;65856;52.178;21.176;2023-02-15T00:08:50;102202.80;;;4.40
76898;BMP180;65856;52.178;21.176;2023-02-15T00:11:21;102208.00;;;4.40
76898;BMP180;65856;52.178;21.176;2023-02-15T00:14:06;102207.00;;;4.40
76898;BMP180;65856;52.178;21.176;2023-02-15T00:16:38;102206.00;;;4.50
76898;BMP180;65856;52.178;21.176;2023-02-15T00:19:10;102206.60;;;4.50
76898;BMP180;65856;52.178;21.176;2023-02-15T00:21:41;102207.40;;;4.54
76898;BMP180;65856;52.178;21.176;2023-02-15T00:24:14;102211.00;;;4.60
76898;BMP180;65856;52.178;21.176;2023-02-15T00:26:46;102210.20;;;4.70
76898;BMP180;65856;52.178;21.176;2023-02-15T00:29:18;102207.40;;;4.70
76898;BMP180;65856;52.178;21.176;2023-02-15T00:31:49;102202.60;;;4.78
76898;BMP180;65856;52.178;21.176;2023-02-15T00:34:22;102197.00;;;4.72
76898;BMP180;65856;52.178;21.176;2023-02-15T00:36:53;102197.80;;;4.70
76898;BMP180;65856;52.178;21.176;2023-02-15T00:39:24;102198.00;;;4.60
76898;BMP180;65856;52.178;21.176;2023-02-15T00:41:56;102194.80;;;4.60
76898;BMP180;65856;52.178;21.176;2023-02-15T00:44:27;102196.20;;;4.60
76898;BMP180;65856;52.178;21.176;2023-02-15T00:46:57;102195.40;;;4.60
76898;BMP180;65856;52.178;21.176;2023-02-15T00:49:27;102188.00;;;4.50
76898;BMP180;65856;52.178;21.176;2023-02-15T00:51:58;102188.00;;;4.50
76898;BMP180;65856;52.178;21.176;2023-02-15T00:54:28;102184.80;;;4.50
76898;BMP180;65856;52.178;21.176;2023-02-15T00:56:59;102185.60;;;4.60
76898;BMP180;65856;52.178;21.176;2023-02-15T00:59:29;102178.00;;;4.60
76898;BMP180;65856;52.178;21.176;2023-02-15T01:01:59;102183.00;;;4.64
76898;BMP180;65856;52.178;21.176;2023-02-15T01:04:30;102175.00;;;4.70
76898;BMP180;65856;52.178;21.176;2023-02-15T01:07:00;102179.00;;;4.60
76898;BMP180;65856;52.178;21.176;2023-02-15T01:09:31;102174.40;;;4.60
76898;BMP180;65856;52.178;21.176;2023-02-15T01:12:01;102174.20;;;4.58
76898;BMP180;65856;52.178;21.176;2023-02-15T01:14:32;102173.60;;;4.50
76898;BMP180;65856;52.178;21.176;2023-02-15T01:17:02;102169.60;;;4.50
76898;BMP180;65856;52.178;21.176;2023-02-15T01:19:33;102170.40;;;4.50
76898;BMP180;65856;52.178;21.176;2023-02-15T01:22:04;102166.80;;;4.50
76898;BMP180;65856;52.178;21.176;2023-02-15T01:24:35;102165.80;;;4.50
76898;BMP180;65856;52.178;21.176;2023-02-15T01:27:05;102166.20;;;4.50
76898;BMP180;65856;52.178;21.176;2023-02-15T01:29:36;102170.60;;;4.58
76898;BMP180;65856;52.178;21.176;2023-02-15T01:32:06;102168.00;;;4.60
76898;BMP180;65856;52.178;21.176;2023-02-15T01:34:37;102167.60;;;4.60
76898;BMP180;65856;52.178;21.176;2023-02-15T01:37:07;102165.00;;;4.60
76898;BMP180;65856;52.178;21.176;2023-02-15T01:39:38;102160.00;;;4.70
76898;BMP180;65856;52.178;21.176;2023-02-15T01:42:12;102161.20;;;4.70
76898;BMP180;65856;52.178;21.176;2023-02-15T01:44:54;102160.40;;;4.70
76898;BMP180;65856;52.178;21.176;2023-02-15T01:47:33;102159.40;;;4.70
76898;BMP180;65856;52.178;21.176;2023-02-15T01:50:11;102158.40;;;4.70
76898;BMP180;65856;52.178;21.176;2023-02-15T01:52:50;102164.80;;;4.70
76898;BMP180;65856;52.178;21.176;2023-02-15T01:55:25;102162.40;;;4.70
76898;BMP180;65856;52.178;21.176;2023-02-15T01:57:57;102166.20;;;4.60
76898;BMP180;65856;52.178;21.176;2023-02-15T02:00:29;102156.00;;;4.60
76898;BMP180;65856;52.178;21.176;2023-02-15T02:02:59;102158.00;;;4.60
76898;BMP180;65856;52.178;21.176;2023-02-15T02:05:31;102158.40;;;4.60
76898;BMP180;65856;52.178;21.176;2023-02-15T02:08:04;102152.00;;;4.50
76898;BMP180;65856;52.178;21.176;2023-02-15T02:10:35;102151.40;;;4.50
76898;BMP180;65856;52.178;21.176;2023-02-15T02:13:07;102143.60;;;4.50
76898;BMP180;65856;52.178;21.176;2023-02-15T02:15:47;102144.00;;;4.42
76898;BMP180;65856;52.178;21.176;2023-02-15T02:18:35;102146.80;;;4.50
76898;BMP180;65856;52.178;21.176;2023-02-15T02:21:51;102143.80;;;4.50
76898;BMP180;65856;52.178;21.176;2023-02-15T02:27:45;102141.40;;;4.50
76898;BMP180;65856;52.178;21.176;2023-02-15T02:30:47;102136.60;;;4.50
76898;BMP180;65856;52.178;21.176;2023-02-15T02:33:49;102134.20;;;4.58
76898;BMP180;65856;52.178;21.176;2023-02-15T02:36:33;102132.40;;;4.50
76898;BMP180;65856;52.178;21.176;2023-02-15T02:39:22;102130.00;;;4.50
76898;BMP180;65856;52.178;21.176;2023-02-15T02:42:04;102128.00;;;4.56
76898;BMP180;65856;52.178;21.176;2023-02-15T02:44:43;102130.00;;;4.60
76898;BMP180;65856;52.178;21.176;2023-02-15T02:47:22;102129.80;;;4.60
76898;BMP180;65856;52.178;21.176;2023-02-15T02:50:02;102129.40;;;4.60
76898;BMP180;65856;52.178;21.176;2023-02-15T02:52:43;102122.20;;;4.70
76898;BMP180;65856;52.178;21.176;2023-02-15T02:55:20;102128.60;;;4.68
76898;BMP180;65856;52.178;21.176;2023-02-15T02:57:56;102126.60;;;4.62
76898;BMP180;65856;52.178;21.176;2023-02-15T03:00:30;102123.20;;;4.70
76898;BMP180;65856;52.178;21.176;2023-02-15T03:03:09;102118.40;;;4.70
76898;BMP180;65856;52.178;21.176;2023-02-15T03:05:46;102113.00;;;4.70
76898;BMP180;65856;52.178;21.176;2023-02-15T03:08:21;102112.80;;;4.70
76898;BMP180;65856;52.178;21.176;2023-02-15T03:11:03;102116.40;;;4.70
76898;BMP180;65856;52.178;21.176;2023-02-15T03:13:35;102111.40;;;4.70
76898;BMP180;65856;52.178;21.176;2023-02-15T03:16:09;102117.80;;;4.60
76898;BMP180;65856;52.178;21.176;2023-02-15T03:19:05;102116.20;;;4.60
76898;BMP180;65856;52.178;21.176;2023-02-15T03:21:43;102113.80;;;4.60
76898;BMP180;65856;52.178;21.176;2023-02-15T03:24:21;102116.40;;;4.60
76898;BMP180;65856;52.178;21.176;2023-02-15T03:26:55;102113.80;;;4.68
76898;BMP180;65856;52.178;21.176;2023-02-15T03:29:30;102114.00;;;4.70
76898;BMP180;65856;52.178;21.176;2023-02-15T03:32:05;102111.40;;;4.66
76898;BMP180;65856;52.178;21.176;2023-02-15T03:34:37;102111.80;;;4.60
76898;BMP180;65856;52.178;21.176;2023-02-15T03:37:15;102112.20;;;4.60
76898;BMP180;65856;52.178;21.176;2023-02-15T03:39:54;102112.60;;;4.60
76898;BMP180;65856;52.178;21.176;2023-02-15T03:42:53;102113.20;;;4.70
76898;BMP180;65856;52.178;21.176;2023-02-15T03:45:30;102112.60;;;4.70
76898;BMP180;65856;52.178;21.176;2023-02-15T03:48:04;102111.40;;;4.70
76898;BMP180;65856;52.178;21.176;2023-02-15T03:50:39;102108.80;;;4.72
76898;BMP180;65856;52.178;21.176;2023-02-15T03:53:25;102109.40;;;4.70
76898;BMP180;65856;52.178;21.176;2023-02-15T03:55:57;102105.00;;;4.80
76898;BMP180;65856;52.178;21.176;2023-02-15T03:58:28;102111.80;;;4.84
76898;BMP180;65856;52.178;21.176;2023-02-15T04:01:26;102105.40;;;4.90
76898;BMP180;65856;52.178;21.176;2023-02-15T04:04:20;102104.00;;;4.90
76898;BMP180;65856;52.178;21.176;2023-02-15T04:06:52;102107.00;;;4.90
76898;BMP180;65856;52.178;21.176;2023-02-15T04:09:22;102103.20;;;4.90
76898;BMP180;65856;52.178;21.176;2023-02-15T04:12:11;102101.80;;;4.90
76898;BMP180;65856;52.178;21.176;2023-02-15T04:14:41;102096.40;;;4.80
76898;BMP180;65856;52.178;21.176;2023-02-15T04:17:29;102101.80;;;4.80
76898;BMP180;65856;52.178;21.176;2023-02-15T04:20:00;102099.40;;;4.90
76898;BMP180;65856;52.178;21.176;2023-02-15T04:22:48;102093.80;;;4.80
76898;BMP180;65856;52.178;21.176;2023-02-15T04:25:36;102096.20;;;4.80
76898;BMP180;65856;52.178;21.176;2023-02-15T04:28:06;102095.40;;;4.80
76898;BMP180;65856;52.178;21.176;2023-02-15T04:30:37;102096.40;;;4.80
76898;BMP180;65856;52.178;21.176;2023-02-15T04:33:07;102092.80;;;4.80
76898;BMP180;65856;52.178;21.176;2023-02-15T04:35:38;102101.80;;;4.80
76898;BMP180;65856;52.178;21.176;2023-02-15T04:38:08;102090.00;;;4.90
76898;BMP180;65856;52.178;21.176;2023-02-15T04:40:39;102089.80;;;4.80
76898;BMP180;65856;52.178;21.176;2023-02-15T04:43:09;102086.00;;;4.80
76898;BMP180;65856;52.178;21.176;2023-02-15T04:45:40;102086.20;;;4.80
76898;BMP180;65856;52.178;21.176;2023-02-15T04:48:10;102084.80;;;4.80
76898;BMP180;65856;52.178;21.176;2023-02-15T04:50:41;102091.00;;;4.82
76898;BMP180;65856;52.178;21.176;2023-02-15T04:53:12;102092.00;;;4.90
76898;BMP180;65856;52.178;21.176;2023-02-15T04:55:43;102095.40;;;4.90
76898;BMP180;65856;52.178;21.176;2023-02-15T04:58:13;102095.20;;;4.90
76898;BMP180;65856;52.178;21.176;2023-02-15T05:00:44;102096.80;;;4.90
76898;BMP180;65856;52.178;21.176;2023-02-15T05:03:14;102095.60;;;4.90
76898;BMP180;65856;52.178;21.176;2023-02-15T05:05:45;102097.20;;;4.90
76898;BMP180;65856;52.178;21.176;2023-02-15T05:08:15;102099.60;;;5.00
76898;BMP180;65856;52.178;21.176;2023-02-15T05:10:48;102101.60;;;5.00
76898;BMP180;65856;52.178;21.176;2023-02-15T05:13:19;102102.80;;;5.02
76898;BMP180;65856;52.178;21.176;2023-02-15T05:15:53;102104.60;;;5.04
76898;BMP180;65856;52.178;21.176;2023-02-15T05:18:24;102107.40;;;5.02
76898;BMP180;65856;52.178;21.176;2023-02-15T05:20:55;102105.00;;;5.00
76898;BMP180;65856;52.178;21.176;2023-02-15T05:23:26;102110.20;;;4.96
76898;BMP180;65856;52.178;21.176;2023-02-15T05:25:56;102113.40;;;4.94
76898;BMP180;65856;52.178;21.176;2023-02-15T05:28:44;102113.60;;;4.96
76898;BMP180;65856;52.178;21.176;2023-02-15T05:31:17;102116.60;;;5.00
76898;BMP180;65856;52.178;21.176;2023-02-15T05:33:48;102113.40;;;5.00
76898;BMP180;65856;52.178;21.176;2023-02-15T05:36:19;102113.60;;;5.00
76898;BMP180;65856;52.178;21.176;2023-02-15T05:38:49;102109.20;;;5.02
76898;BMP180;65856;52.178;21.176;2023-02-15T05:41:19;102111.80;;;5.00
76898;BMP180;65856;52.178;21.176;2023-02-15T05:43:50;102115.40;;;5.00
76898;BMP180;65856;52.178;21.176;2023-02-15T05:46:20;102113.80;;;5.00
76898;BMP180;65856;52.178;21.176;2023-02-15T05:48:51;102108.40;;;5.00
76898;BMP180;65856;52.178;21.176;2023-02-15T05:51:21;102106.60;;;4.98
76898;BMP180;65856;52.178;21.176;2023-02-15T05:53:52;102109.20;;;4.90
76898;BMP180;65856;52.178;21.176;2023-02-15T05:56:22;102111.60;;;4.90
76898;BMP180;65856;52.178;21.176;2023-02-15T05:58:55;102118.00;;;4.98
76898;BMP180;65856;52.178;21.176;2023-02-15T06:01:25;102119.00;;;5.00
76898;BMP180;65856;52.178;21.176;2023-02-15T06:03:56;102117.60;;;4.98
76898;BMP180;65856;52.178;21.176;2023-02-15T06:06:26;102119.00;;;5.00
76898;BMP180;65856;52.178;21.176;2023-02-15T06:08:57;102117.40;;;5.00
76898;BMP180;65856;52.178;21.176;2023-02-15T06:11:27;102118.00;;;5.00
76898;BMP180;65856;52.178;21.176;2023-02-15T06:13:58;102120.20;;;5.00
76898;BMP180;65856;52.178;21.176;2023-02-15T06:16:28;102124.80;;;4.90
76898;BMP180;65856;52.178;21.176;2023-02-15T06:18:58;102121.60;;;4.90
76898;BMP180;65856;52.178;21.176;2023-02-15T06:21:31;102126.20;;;4.90
76898;BMP180;65856;52.178;21.176;2023-02-15T06:24:01;102127.60;;;4.90
76898;BMP180;65856;52.178;21.176;2023-02-15T06:26:31;102129.80;;;4.90
76898;BMP180;65856;52.178;21.176;2023-02-15T06:29:02;102129.20;;;4.90
76898;BMP180;65856;52.178;21.176;2023-02-15T06:31:33;102134.40;;;5.00
76898;BMP180;65856;52.178;21.176;2023-02-15T06:34:03;102134.60;;;5.00
76898;BMP180;65856;52.178;21.176;2023-02-15T06:36:34;102136.00;;;4.90
76898;BMP180;65856;52.178;21.176;2023-02-15T06:39:05;102131.00;;;4.90
76898;BMP180;65856;52.178;21.176;2023-02-15T06:41:35;102130.60;;;4.90
76898;BMP180;65856;52.178;21.176;2023-02-15T06:44:06;102130.80;;;5.00
76898;BMP180;65856;52.178;21.176;2023-02-15T06:46:37;102134.20;;;5.00
76898;BMP180;65856;52.178;21.176;2023-02-15T06:49:07;102133.20;;;4.90
76898;BMP180;65856;52.178;21.176;2023-02-15T06:51:38;102131.40;;;4.90
76898;BMP180;65856;52.178;21.176;2023-02-15T06:54:08;102132.60;;;5.00
76898;BMP180;65856;52.178;21.176;2023-02-15T06:56:39;102124.00;;;5.00
76898;BMP180;65856;52.178;21.176;2023-02-15T06:59:09;102122.20;;;5.00
76898;BMP180;65856;52.178;21.176;2023-02-15T07:01:40;102118.60;;;5.06
76898;BMP180;65856;52.178;21.176;2023-02-15T07:04:10;102122.80;;;5.04
76898;BMP180;65856;52.178;21.176;2023-02-15T07:06:41;102126.00;;;5.00
76898;BMP180;65856;52.178;21.176;2023-02-15T07:09:11;102119.60;;;4.94
76898;BMP180;65856;52.178;21.176;2023-02-15T07:11:42;102121.40;;;4.90
76898;BMP180;65856;52.178;21.176;2023-02-15T07:14:30;102123.40;;;4.90
76898;BMP180;65856;52.178;21.176;2023-02-15T07:17:01;102127.20;;;4.90
76898;BMP180;65856;52.178;21.176;2023-02-15T07:19:31;102127.20;;;4.90
76898;BMP180;65856;52.178;21.176;2023-02-15T07:22:02;102127.80;;;4.90
76898;BMP180;65856;52.178;21.176;2023-02-15T07:24:32;102124.00;;;4.90
76898;BMP180;65856;52.178;21.176;2023-02-15T07:27:03;102114.60;;;4.80
76898;BMP180;65856;52.178;21.176;2023-02-15T07:29:33;102117.60;;;4.80
76898;BMP180;65856;52.178;21.176;2023-02-15T07:32:04;102116.40;;;4.70
76898;BMP180;65856;52.178;21.176;2023-02-15T07:34:34;102115.80;;;4.70
76898;BMP180;65856;52.178;21.176;2023-02-15T07:37:05;102115.00;;;4.72
76898;BMP180;65856;52.178;21.176;2023-02-15T07:39:35;102113.80;;;4.80
76898;BMP180;65856;52.178;21.176;2023-02-15T07:42:06;102112.20;;;4.80
76898;BMP180;65856;52.178;21.176;2023-02-15T07:44:36;102111.60;;;4.80
76898;BMP180;65856;52.178;21.176;2023-02-15T07:47:07;102115.40;;;4.80
76898;BMP180;65856;52.178;21.176;2023-02-15T07:49:37;102105.00;;;4.80
76898;BMP180;65856;52.178;21.176;2023-02-15T07:52:08;102106.20;;;4.80
76898;BMP180;65856;52.178;21.176;2023-02-15T07:54:39;102105.20;;;4.80
76898;BMP180;65856;52.178;21.176;2023-02-15T07:57:09;102110.80;;;4.80
76898;BMP180;65856;52.178;21.176;2023-02-15T07:59:39;102106.40;;;4.80
76898;BMP180;65856;52.178;21.176;2023-02-15T08:02:13;102105.40;;;4.70
76898;BMP180;65856;52.178;21.176;2023-02-15T08:04:43;102104.40;;;4.50
76898;BMP180;65856;52.178;21.176;2023-02-15T08:07:14;102098.00;;;4.50
76898;BMP180;65856;52.178;21.176;2023-02-15T08:09:44;102097.80;;;4.42
76898;BMP180;65856;52.178;21.176;2023-02-15T08:12:15;102101.80;;;4.38
76898;BMP180;65856;52.178;21.176;2023-02-15T08:14:45;102101.80;;;4.30
76898;BMP180;65856;52.178;21.176;2023-02-15T08:17:16;102096.60;;;4.30
76898;BMP180;65856;52.178;21.176;2023-02-15T08:19:46;102092.40;;;4.36
76898;BMP180;65856;52.178;21.176;2023-02-15T08:22:17;102097.20;;;4.40
76898;BMP180;65856;52.178;21.176;2023-02-15T08:24:48;102092.40;;;4.44
76898;BMP180;65856;52.178;21.176;2023-02-15T08:27:19;102095.00;;;4.50
76898;BMP180;65856;52.178;21.176;2023-02-15T08:29:55;102096.60;;;4.50
76898;BMP180;65856;52.178;21.176;2023-02-15T08:32:26;102093.00;;;4.50
76898;BMP180;65856;52.178;21.176;2023-02-15T08:34:56;102093.40;;;4.46
76898;BMP180;65856;52.178;21.176;2023-02-15T08:37:27;102091.00;;;4.44
76898;BMP180;65856;52.178;21.176;2023-02-15T08:39:57;102088.00;;;4.50
76898;BMP180;65856;52.178;21.176;2023-02-15T08:42:28;102081.40;;;4.40
76898;BMP180;65856;52.178;21.176;2023-02-15T08:44:59;102079.60;;;4.40
76898;BMP180;65856;52.178;21.176;2023-02-15T08:47:29;102080.60;;;4.42
76898;BMP180;65856;52.178;21.176;2023-02-15T08:50:00;102082.40;;;4.42
76898;BMP180;65856;52.178;21.176;2023-02-15T08:52:30;102082.20;;;4.40
76898;BMP180;65856;52.178;21.176;2023-02-15T08:55:01;102085.00;;;4.40
76898;BMP180;65856;52.178;21.176;2023-02-15T08:57:31;102077.40;;;4.34
76898;BMP180;65856;52.178;21.176;2023-02-15T09:00:02;102074.80;;;4.36
76898;BMP180;65856;52.178;21.176;2023-02-15T09:02:34;102074.60;;;4.36
76898;BMP180;65856;52.178;21.176;2023-02-15T09:05:07;102070.60;;;4.40
76898;BMP180;65856;52.178;21.176;2023-02-15T09:07:38;102068.00;;;4.40
76898;BMP180;65856;52.178;21.176;2023-02-15T09:10:10;102073.40;;;4.40
76898;BMP180;65856;52.178;21.176;2023-02-15T09:12:41;102066.40;;;4.40
76898;BMP180;65856;52.178;21.176;2023-02-15T09:15:12;102070.60;;;4.40
76898;BMP180;65856;52.178;21.176;2023-02-15T09:17:42;102062.80;;;4.40
76898;BMP180;65856;52.178;21.176;2023-02-15T09:20:14;102055.80;;;4.40
76898;BMP180;65856;52.178;21.176;2023-02-15T09:22:45;102060.40;;;4.38
76898;BMP180;65856;52.178;21.176;2023-02-15T09:25:15;102064.60;;;4.36
76898;BMP180;65856;52.178;21.176;2023-02-15T09:27:46;102062.80;;;4.30
76898;BMP180;65856;52.178;21.176;2023-02-15T09:30:17;102061.80;;;4.30
76898;BMP180;65856;52.178;21.176;2023-02-15T09:32:48;102058.80;;;4.20
76898;BMP180;65856;52.178;21.176;2023-02-15T09:35:18;102058.60;;;4.18
76898;BMP180;65856;52.178;21.176;2023-02-15T09:37:49;102062.40;;;4.20
76898;BMP180;65856;52.178;21.176;2023-02-15T09:40:19;102063.40;;;4.20
76898;BMP180;65856;52.178;21.176;2023-02-15T09:43:18;102068.40;;;4.14
76898;BMP180;65856;52.178;21.176;2023-02-15T09:46:12;102070.00;;;4.08
76898;BMP180;65856;52.178;21.176;2023-02-15T09:48:52;102062.60;;;4.00
76898;BMP180;65856;52.178;21.176;2023-02-15T09:51:52;102061.80;;;4.00
76898;BMP180;65856;52.178;21.176;2023-02-15T09:54:44;102059.00;;;3.90
76898;BMP180;65856;52.178;21.176;2023-02-15T09:57:29;102057.40;;;3.90
76898;BMP180;65856;52.178;21.176;2023-02-15T10:00:27;102053.80;;;3.90
76898;BMP180;65856;52.178;21.176;2023-02-15T10:03:23;102053.00;;;3.90
76898;BMP180;65856;52.178;21.176;2023-02-15T10:06:19;102055.40;;;3.90
76898;BMP180;65856;52.178;21.176;2023-02-15T10:09:11;102049.60;;;3.90
76898;BMP180;65856;52.178;21.176;2023-02-15T10:12:06;102050.00;;;3.90
76898;BMP180;65856;52.178;21.176;2023-02-15T10:14:56;102045.00;;;3.80
76898;BMP180;65856;52.178;21.176;2023-02-15T10:17:44;102049.80;;;3.62
76898;BMP180;65856;52.178;21.176;2023-02-15T10:20:30;102045.40;;;3.60
76898;BMP180;65856;52.178;21.176;2023-02-15T10:23:39;102036.40;;;3.50
76898;BMP180;65856;52.178;21.176;2023-02-15T10:26:18;102032.20;;;3.50
76898;BMP180;65856;52.178;21.176;2023-02-15T10:28:53;102029.00;;;3.60
76898;BMP180;65856;52.178;21.176;2023-02-15T10:31:30;102030.40;;;3.60
76898;BMP180;65856;52.178;21.176;2023-02-15T10:34:19;102028.00;;;3.60
76898;BMP180;65856;52.178;21.176;2023-02-15T10:37:20;102023.00;;;3.70
76898;BMP180;65856;52.178;21.176;2023-02-15T10:40:04;102024.00;;;3.70
76898;BMP180;65856;52.178;21.176;2023-02-15T10:42:57;102016.80;;;3.70
76898;BMP180;65856;52.178;21.176;2023-02-15T10:45:36;102016.40;;;3.70
76898;BMP180;65856;52.178;21.176;2023-02-15T10:48:37;102011.40;;;3.70
76898;BMP180;65856;52.178;21.176;2023-02-15T10:51:16;102008.40;;;3.70
76898;BMP180;65856;52.178;21.176;2023-02-15T10:54:09;102010.40;;;3.70
76898;BMP180;65856;52.178;21.176;2023-02-15T10:56:52;102004.20;;;3.70
76898;BMP180;65856;52.178;21.176;2023-02-15T10:59:53;102002.80;;;3.70
76898;BMP180;65856;52.178;21.176;2023-02-15T11:02:49;102001.40;;;3.80
76898;BMP180;65856;52.178;21.176;2023-02-15T11:05:38;101996.80;;;3.80
76898;BMP180;65856;52.178;21.176;2023-02-15T11:08:12;101995.40;;;3.80
76898;BMP180;65856;52.178;21.176;2023-02-15T11:10:49;101993.40;;;3.80
76898;BMP180;65856;52.178;21.176;2023-02-15T11:13:25;101992.00;;;3.90
76898;BMP180;65856;52.178;21.176;2023-02-15T11:16:02;101989.20;;;3.88
76898;BMP180;65856;52.178;21.176;2023-02-15T11:18:38;101990.60;;;3.80
76898;BMP180;65856;52.178;21.176;2023-02-15T11:21:17;101984.20;;;3.80
76898;BMP180;65856;52.178;21.176;2023-02-15T11:23:49;101982.20;;;3.90
76898;BMP180;65856;52.178;21.176;2023-02-15T11:26:29;101985.00;;;3.80
76898;BMP180;65856;52.178;21.176;2023-02-15T11:29:12;101983.40;;;3.80
76898;BMP180;65856;52.178;21.176;2023-02-15T11:31:47;101982.20;;;3.70
76898;BMP180;65856;52.178;21.176;2023-02-15T11:34:27;101984.60;;;3.70
76898;BMP180;65856;52.178;21.176;2023-02-15T11:37:04;101977.00;;;3.70
76898;BMP180;65856;52.178;21.176;2023-02-15T11:39:37;101977.00;;;3.70
76898;BMP180;65856;52.178;21.176;2023-02-15T11:42:13;101973.20;;;3.70
76898;BMP180;65856;52.178;21.176;2023-02-15T11:44:56;101972.00;;;3.70
76898;BMP180;65856;52.178;21.176;2023-02-15T11:47:29;101969.40;;;3.60
76898;BMP180;65856;52.178;21.176;2023-02-15T11:50:00;101975.60;;;3.60
76898;BMP180;65856;52.178;21.176;2023-02-15T11:52:32;101978.00;;;3.50
76898;BMP180;65856;52.178;21.176;2023-02-15T11:55:09;101968.40;;;3.48
76898;BMP180;65856;52.178;21.176;2023-02-15T11:57:48;101966.80;;;3.44
76898;BMP180;65856;52.178;21.176;2023-02-15T12:00:32;101960.00;;;3.50
76898;BMP180;65856;52.178;21.176;2023-02-15T12:03:14;101958.80;;;3.48
76898;BMP180;65856;52.178;21.176;2023-02-15T12:05:52;101959.80;;;3.46
76898;BMP180;65856;52.178;21.176;2023-02-15T12:08:25;101958.60;;;3.50
76898;BMP180;65856;52.178;21.176;2023-02-15T12:11:08;101957.80;;;3.40
76898;BMP180;65856;52.178;21.176;2023-02-15T12:13:58;101958.60;;;3.50
76898;BMP180;65856;52.178;21.176;2023-02-15T12:16:34;101950.00;;;3.44
76898;BMP180;65856;52.178;21.176;2023-02-15T12:19:27;101947.00;;;3.40
76898;BMP180;65856;52.178;21.176;2023-02-15T12:22:00;101948.20;;;3.50
76898;BMP180;65856;52.178;21.176;2023-02-15T12:24:36;101951.80;;;3.60
76898;BMP180;65856;52.178;21.176;2023-02-15T12:27:16;101947.20;;;3.60
76898;BMP180;65856;52.178;21.176;2023-02-15T12:29:51;101943.00;;;3.60
76898;BMP180;65856;52.178;21.176;2023-02-15T12:32:26;101943.80;;;3.54
76898;BMP180;65856;52.178;21.176;2023-02-15T12:35:07;101938.80;;;3.50
76898;BMP180;65856;52.178;21.176;2023-02-15T12:37:39;101931.40;;;3.50
76898;BMP180;65856;52.178;21.176;2023-02-15T12:40:27;101927.00;;;3.50
76898;BMP180;65856;52.178;21.176;2023-02-15T12:42:58;101916.80;;;3.40
76898;BMP180;65856;52.178;21.176;2023-02-15T12:45:32;101918.60;;;3.40
76898;BMP180;65856;52.178;21.176;2023-02-15T12:48:18;101923.20;;;3.50
76898;BMP180;65856;52.178;21.176;2023-02-15T12:50:50;101913.00;;;3.60
76898;BMP180;65856;52.178;21.176;2023-02-15T12:53:30;101913.20;;;3.62
76898;BMP180;65856;52.178;21.176;2023-02-15T12:56:03;101913.20;;;3.70
76898;BMP180;65856;52.178;21.176;2023-02-15T12:58:35;101915.00;;;3.80
76898;BMP180;65856;52.178;21.176;2023-02-15T13:01:14;101908.20;;;3.90
76898;BMP180;65856;52.178;21.176;2023-02-15T13:03:59;101901.40;;;4.00
76898;BMP180;65856;52.178;21.176;2023-02-15T13:06:33;101897.60;;;4.00
76898;BMP180;65856;52.178;21.176;2023-02-15T13:09:19;101894.40;;;3.94
76898;BMP180;65856;52.178;21.176;2023-02-15T13:11:50;101895.00;;;4.00
76898;BMP180;65856;52.178;21.176;2023-02-15T13:14:25;101894.00;;;4.00
76898;BMP180;65856;52.178;21.176;2023-02-15T13:17:02;101885.40;;;3.90
76898;BMP180;65856;52.178;21.176;2023-02-15T13:19:39;101891.00;;;3.90
76898;BMP180;65856;52.178;21.176;2023-02-15T13:22:15;101886.60;;;3.82
76898;BMP180;65856;52.178;21.176;2023-02-15T13:24:50;101881.80;;;3.80
76898;BMP180;65856;52.178;21.176;2023-02-15T13:27:26;101882.40;;;3.70
76898;BMP180;65856;52.178;21.176;2023-02-15T13:30:02;101880.00;;;3.60
76898;BMP180;65856;52.178;21.176;2023-02-15T13:32:37;101878.00;;;3.60
76898;BMP180;65856;52.178;21.176;2023-02-15T13:35:17;101874.80;;;3.60
76898;BMP180;65856;52.178;21.176;2023-02-15T13:38:10;101875.40;;;3.50
76898;BMP180;65856;52.178;21.176;2023-02-15T13:40:51;101875.40;;;3.50
76898;BMP180;65856;52.178;21.176;2023-02-15T13:43:46;101867.20;;;3.50
76898;BMP180;65856;52.178;21.176;2023-02-15T13:46:38;101862.80;;;3.60
76898;BMP180;65856;52.178;21.176;2023-02-15T13:49:32;101861.80;;;3.60
76898;BMP180;65856;52.178;21.176;2023-02-15T13:52:19;101861.60;;;3.60
76898;BMP180;65856;52.178;21.176;2023-02-15T13:55:16;101860.60;;;3.66
76898;BMP180;65856;52.178;21.176;2023-02-15T13:58:17;101864.00;;;3.70
76898;BMP180;65856;52.178;21.176;2023-02-15T14:01:08;101862.20;;;3.70
76898;BMP180;65856;52.178;21.176;2023-02-15T14:04:08;101865.40;;;3.70
76898;BMP180;65856;52.178;21.176;2023-02-15T14:07:08;101855.40;;;3.70
76898;BMP180;65856;52.178;21.176;2023-02-15T14:09:57;101858.40;;;3.70
76898;BMP180;65856;52.178;21.176;2023-02-15T14:12:46;101850.60;;;3.60
76898;BMP180;65856;52.178;21.176;2023-02-15T14:15:34;101852.60;;;3.60
76898;BMP180;65856;52.178;21.176;2023-02-15T14:18:22;101850.20;;;3.60
76898;BMP180;65856;52.178;21.176;2023-02-15T14:21:06;101843.40;;;3.60
76898;BMP180;65856;52.178;21.176;2023-02-15T14:23:51;101843.60;;;3.70
76898;BMP180;65856;52.178;21.176;2023-02-15T14:26:38;101843.60;;;3.90
76898;BMP180;65856;52.178;21.176;2023-02-15T14:29:23;101839.80;;;3.90
76898;BMP180;65856;52.178;21.176;2023-02-15T14:32:04;101840.20;;;3.86
76898;BMP180;65856;52.178;21.176;2023-02-15T14:34:48;101838.60;;;3.90
76898;BMP180;65856;52.178;21.176;2023-02-15T14:37:29;101839.60;;;4.00
76898;BMP180;65856;52.178;21.176;2023-02-15T14:40:10;101840.00;;;3.90
76898;BMP180;65856;52.178;21.176;2023-02-15T14:43:07;101838.40;;;3.82
76898;BMP180;65856;52.178;21.176;2023-02-15T14:45:50;101834.00;;;3.76
76898;BMP180;65856;52.178;21.176;2023-02-15T14:48:28;101832.40;;;3.70
76898;BMP180;65856;52.178;21.176;2023-02-15T14:51:00;101831.40;;;3.70
76898;BMP180;65856;52.178;21.176;2023-02-15T14:53:41;101832.40;;;3.74